createdAt,value
2022-09-29T00:13:42.728Z,9.43
2022-09-29T00:33:42.767Z,9.40
2022-09-29T00:53:42.780Z,9.38
2022-09-29T01:13:42.803Z,9.10
2022-09-29T01:33:42.726Z,9.09
2022-09-29T01:53:42.748Z,9.08
2022-09-29T02:13:42.670Z,9.19
2022-09-29T02:33:42.695Z,9.19
2022-09-29T02:53:42.622Z,9.34
2022-09-29T03:13:42.649Z,9.30
2022-09-29T03:33:42.662Z,9.17
2022-09-29T03:53:42.652Z,9.40
2022-09-29T04:13:42.616Z,9.44
2022-09-29T04:33:42.631Z,9.53
2022-09-29T04:53:42.553Z,9.43
2022-09-29T05:13:42.588Z,9.51
2022-09-29T05:33:42.602Z,9.46
2022-09-29T05:53:42.573Z,9.41
2022-09-29T06:13:42.546Z,9.55
2022-09-29T06:33:42.697Z,9.63
2022-09-29T06:53:42.493Z,9.73
2022-09-29T07:13:42.673Z,10.35
2022-09-29T07:33:42.537Z,10.34
2022-09-29T07:53:42.462Z,10.53
2022-09-29T08:13:42.525Z,10.74
2022-09-29T08:33:42.406Z,10.85
2022-09-29T08:53:42.432Z,11.24
2022-09-29T09:13:42.449Z,11.52
2022-09-29T09:33:42.373Z,11.80
2022-09-29T09:53:42.397Z,11.82
2022-09-29T10:13:42.420Z,11.88
2022-09-29T10:33:42.346Z,11.96
2022-09-29T10:53:42.369Z,11.82
2022-09-29T11:13:42.294Z,11.75
2022-09-29T11:33:42.313Z,11.56
2022-09-29T11:53:42.347Z,11.67
2022-09-29T12:13:42.265Z,11.69
2022-09-29T12:33:42.289Z,11.93
2022-09-29T12:53:42.280Z,12.25
2022-09-29T13:13:42.220Z,12.34
2022-09-29T13:33:42.275Z,12.56
2022-09-29T13:53:42.155Z,12.80
2022-09-29T14:13:42.179Z,12.56
2022-09-29T14:33:42.200Z,12.40
2022-09-29T14:53:42.126Z,12.24
2022-09-29T15:13:42.150Z,12.13
2022-09-29T15:33:42.076Z,11.79
2022-09-29T15:53:42.182Z,11.53
2022-09-29T16:13:42.023Z,11.26
2022-09-29T16:33:42.047Z,10.95
2022-09-29T16:53:42.069Z,10.69
2022-09-29T17:13:41.990Z,10.51
2022-09-29T17:33:42.014Z,10.42
2022-09-29T17:53:42.082Z,10.55
2022-09-29T18:13:42.110Z,10.59
2022-09-29T18:33:42.044Z,10.61
2022-09-29T18:53:42.069Z,10.57
2022-09-29T19:13:42.080Z,10.48
2022-09-29T19:33:42.095Z,10.41
2022-09-29T19:53:42.007Z,10.37
2022-09-29T20:13:42.035Z,10.25
2022-09-29T20:33:41.960Z,10.11
2022-09-29T20:53:41.986Z,10.01
2022-09-29T21:13:41.997Z,10.01
2022-09-29T21:33:41.942Z,9.77
2022-09-29T21:53:41.868Z,9.81
2022-09-29T22:13:41.813Z,9.93
2022-09-29T22:33:41.749Z,9.82
2022-09-29T22:53:41.876Z,9.97
2022-09-29T23:13:41.818Z,10.08
2022-09-29T23:33:41.719Z,9.91
2022-09-29T23:53:41.749Z,10.02
